createdAt,value
2018-09-05T00:00:48.664Z,23.40
2018-09-05T00:05:51.821Z,18.10
2018-09-05T00:10:54.831Z,25.00
2018-09-05T00:15:57.884Z,17.83
2018-09-05T00:21:01.218Z,19.93
2018-09-05T00:26:04.663Z,18.83
2018-09-05T00:31:10.138Z,20.30
2018-09-05T00:36:13.247Z,22.40
2018-09-05T00:41:16.355Z,20.43
2018-09-05T00:46:19.460Z,25.83
2018-09-05T00:51:22.564Z,21.60
2018-09-05T00:56:25.597Z,21.57
2018-09-05T01:01:28.690Z,25.17
2018-09-05T01:06:31.800Z,22.53
2018-09-05T01:11:34.914Z,24.40
2018-09-05T01:16:38.027Z,25.23
2018-09-05T01:21:41.102Z,19.27
2018-09-05T01:26:44.168Z,23.00
2018-09-05T01:31:47.235Z,29.10
2018-09-05T01:36:50.316Z,23.87
2018-09-05T01:41:53.478Z,23.37
2018-09-05T01:46:56.568Z,25.33
2018-09-05T01:52:00.007Z,26.57
2018-09-05T01:57:03.088Z,25.80
2018-09-05T02:02:06.172Z,24.50
2018-09-05T02:07:09.312Z,28.00
2018-09-05T02:12:12.357Z,27.60
2018-09-05T02:17:15.417Z,26.17
2018-09-05T02:22:18.491Z,25.20
2018-09-05T02:27:21.632Z,26.23
2018-09-05T02:32:24.681Z,25.97
2018-09-05T02:37:27.819Z,28.43
2018-09-05T02:42:30.885Z,26.83
2018-09-05T02:47:33.987Z,31.50
2018-09-05T02:52:37.085Z,44.10
2018-09-05T02:57:40.159Z,42.23
2018-09-05T03:02:43.271Z,53.17
2018-09-05T03:07:46.358Z,54.57
2018-09-05T03:12:49.382Z,62.70
2018-09-05T03:17:52.437Z,63.03
2018-09-05T03:22:55.511Z,68.67
2018-09-05T03:27:58.582Z,74.33
2018-09-05T03:33:01.674Z,80.43
2018-09-05T03:38:04.848Z,72.50
2018-09-05T03:43:07.901Z,65.57
2018-09-05T03:48:11.084Z,63.57
2018-09-05T03:53:14.515Z,70.10
2018-09-05T03:58:17.619Z,60.83
2018-09-05T04:03:20.699Z,65.77
2018-09-05T04:08:23.756Z,66.70
2018-09-05T04:13:26.834Z,63.13
2018-09-05T04:18:29.957Z,65.10
2018-09-05T04:23:37.244Z,67.03
2018-09-05T04:28:40.317Z,66.73
2018-09-05T04:33:43.467Z,64.70
2018-09-05T04:38:46.564Z,55.80
2018-09-05T04:43:49.645Z,59.37
2018-09-05T04:48:52.682Z,57.70
2018-09-05T04:53:55.717Z,54.67
2018-09-05T04:58:58.789Z,54.37
2018-09-05T05:04:01.864Z,54.70
2018-09-05T05:09:08.881Z,52.47
2018-09-05T05:14:12.258Z,43.33
2018-09-05T05:19:15.306Z,44.17
2018-09-05T05:24:18.358Z,40.07
2018-09-05T05:29:21.428Z,42.87
2018-09-05T05:34:24.518Z,39.37
2018-09-05T05:39:28.697Z,42.27
2018-09-05T05:44:31.764Z,40.87
2018-09-05T05:49:34.832Z,46.83
2018-09-05T05:54:37.928Z,37.83
2018-09-05T05:59:41.002Z,38.50
2018-09-05T06:04:44.210Z,42.37
2018-09-05T06:09:47.351Z,39.47
2018-09-05T06:14:50.389Z,38.80
2018-09-05T06:19:53.463Z,40.17
2018-09-05T06:24:56.541Z,38.13
2018-09-05T06:29:59.637Z,40.77
2018-09-05T06:35:02.753Z,37.13
2018-09-05T06:40:06.229Z,33.40
2018-09-05T06:45:09.367Z,41.53
2018-09-05T06:50:12.424Z,43.73
2018-09-05T06:55:15.485Z,31.63
2018-09-05T07:00:18.964Z,42.70
2018-09-05T07:05:22.012Z,39.70
2018-09-05T07:10:25.075Z,29.90
2018-09-05T07:15:28.122Z,28.97
2018-09-05T07:20:31.260Z,30.60
2018-09-05T07:25:34.357Z,35.57
2018-09-05T07:30:37.479Z,25.90
2018-09-05T07:35:40.542Z,29.27
2018-09-05T07:40:43.861Z,27.93
2018-09-05T07:45:47.169Z,35.03
2018-09-05T07:50:50.268Z,27.60
2018-09-05T07:55:53.304Z,25.93
2018-09-05T08:00:56.356Z,30.20
2018-09-05T08:05:59.485Z,19.30
2018-09-05T08:11:02.591Z,20.10
2018-09-05T08:16:06.103Z,17.40
2018-09-05T08:21:09.153Z,16.17
2018-09-05T08:26:12.180Z,14.33
2018-09-05T08:32:18.620Z,13.80
2018-09-05T08:37:21.932Z,15.53
2018-09-05T08:42:24.862Z,12.00
2018-09-05T08:47:28.247Z,14.17
2018-09-05T08:52:31.293Z,15.17
2018-09-05T08:57:34.376Z,17.13
2018-09-05T09:02:37.676Z,14.50
2018-09-05T09:07:40.799Z,14.47
2018-09-05T09:12:45.049Z,11.13
2018-09-05T09:17:48.144Z,10.80
2018-09-05T09:22:51.367Z,13.73
2018-09-05T09:27:54.423Z,12.90
2018-09-05T09:32:57.525Z,14.33
2018-09-05T09:38:00.592Z,12.93
2018-09-05T09:43:03.674Z,14.33
2018-09-05T09:48:06.809Z,11.17
2018-09-05T09:53:09.872Z,16.17
2018-09-05T09:58:13.003Z,10.87
2018-09-05T10:03:21.663Z,9.17
2018-09-05T10:08:31.098Z,10.57
2018-09-05T10:13:39.893Z,12.40
2018-09-05T10:18:45.260Z,15.17
2018-09-05T10:23:48.485Z,22.10
2018-09-05T10:28:51.556Z,9.27
2018-09-05T10:33:54.646Z,10.20
2018-09-05T10:38:57.691Z,8.83
2018-09-05T10:44:00.736Z,13.53
2018-09-05T10:49:03.828Z,9.70
2018-09-05T10:54:06.906Z,9.83
2018-09-05T10:59:10.005Z,9.23
2018-09-05T11:04:13.153Z,10.00
2018-09-05T11:09:16.181Z,15.80
2018-09-05T11:14:19.227Z,9.13
2018-09-05T11:19:22.299Z,8.87
2018-09-05T11:24:25.375Z,10.23
2018-09-05T11:29:28.447Z,10.27
2018-09-05T11:34:31.489Z,8.50
2018-09-05T11:39:34.656Z,11.10
2018-09-05T11:44:37.876Z,10.50
2018-09-05T11:49:41.038Z,14.50
2018-09-05T11:54:44.099Z,10.67
2018-09-05T11:59:47.208Z,19.00
2018-09-05T12:04:50.329Z,9.83
2018-09-05T12:09:53.374Z,12.07
2018-09-05T12:14:56.417Z,9.07
2018-09-05T12:19:59.473Z,7.30
2018-09-05T12:25:02.562Z,6.80
2018-09-05T12:30:05.660Z,7.50
2018-09-05T12:35:08.821Z,8.30
2018-09-05T12:40:11.898Z,13.83
2018-09-05T12:45:14.982Z,10.90
2018-09-05T12:50:18.126Z,10.40
2018-09-05T12:55:21.232Z,13.50
2018-09-05T13:00:24.311Z,9.53
2018-09-05T13:05:27.455Z,7.30
2018-09-05T13:10:30.459Z,18.70
2018-09-05T13:15:58.922Z,14.23
2018-09-05T13:21:02.029Z,26.47
2018-09-05T13:26:05.116Z,8.00
2018-09-05T13:31:08.216Z,6.60
2018-09-05T13:36:11.349Z,7.13
2018-09-05T13:41:14.386Z,8.03
2018-09-05T13:46:17.431Z,7.67
2018-09-05T13:51:20.541Z,6.37
2018-09-05T13:56:23.645Z,7.73
2018-09-05T14:01:26.643Z,8.30
2018-09-05T14:06:29.728Z,6.33
2018-09-05T14:11:32.864Z,6.90
2018-09-05T14:16:36.229Z,6.20
2018-09-05T14:21:39.265Z,7.53
2018-09-05T14:26:42.292Z,6.40
2018-09-05T14:31:45.399Z,8.33
2018-09-05T14:36:48.457Z,7.90
2018-09-05T14:41:51.538Z,4.67
2018-09-05T14:46:54.577Z,6.27
2018-09-05T14:51:57.661Z,6.40
2018-09-05T14:57:00.710Z,7.20
2018-09-05T15:02:03.786Z,7.17
2018-09-05T15:07:06.920Z,9.23
2018-09-05T15:12:09.983Z,6.87
2018-09-05T15:17:13.026Z,7.63
2018-09-05T15:22:16.160Z,7.40
2018-09-05T15:27:19.253Z,5.50
2018-09-05T15:32:22.658Z,6.87
2018-09-05T15:37:25.741Z,9.43
2018-09-05T15:42:28.838Z,8.33
2018-09-05T15:47:31.969Z,20.53
2018-09-05T15:52:35.034Z,9.53
2018-09-05T15:57:38.420Z,8.17
2018-09-05T16:02:42.210Z,7.73
2018-09-05T16:07:45.415Z,5.50
2018-09-05T16:12:48.660Z,7.33
2018-09-05T16:17:54.333Z,27.77
2018-09-05T16:22:57.486Z,9.37
2018-09-05T16:28:00.551Z,10.13
2018-09-05T16:33:03.629Z,8.20
2018-09-05T16:38:06.691Z,7.20
2018-09-05T16:43:09.729Z,6.60
2018-09-05T16:48:12.797Z,6.50
2018-09-05T16:53:15.881Z,10.40
2018-09-05T16:58:18.893Z,6.10
2018-09-05T17:03:22.008Z,9.77
2018-09-05T17:08:25.062Z,6.20
2018-09-05T17:13:28.117Z,7.47
2018-09-05T17:18:31.227Z,6.43
2018-09-05T17:23:34.311Z,20.53
2018-09-05T17:28:37.419Z,20.30
2018-09-05T17:33:40.422Z,12.33
2018-09-05T17:38:43.537Z,11.53
2018-09-05T17:43:46.609Z,11.67
2018-09-05T17:48:49.647Z,10.90
2018-09-05T17:53:52.766Z,17.47
2018-09-05T17:58:55.858Z,18.00
2018-09-05T18:03:58.921Z,14.17
2018-09-05T18:09:01.976Z,10.13
2018-09-05T18:14:05.109Z,11.87
2018-09-05T18:19:08.216Z,12.30
2018-09-05T18:24:11.268Z,14.87
2018-09-05T18:29:14.407Z,12.70
2018-09-05T18:34:17.506Z,12.83
2018-09-05T18:39:20.857Z,13.50
2018-09-05T18:44:23.959Z,15.83
2018-09-05T18:49:27.042Z,19.97
2018-09-05T18:54:30.425Z,17.00
2018-09-05T18:59:33.728Z,10.20
2018-09-05T19:04:37.142Z,11.27
2018-09-05T19:09:40.179Z,11.13
2018-09-05T19:14:43.332Z,18.40
2018-09-05T19:19:46.429Z,14.37
2018-09-05T19:24:49.578Z,9.93
2018-09-05T19:29:52.655Z,11.10
2018-09-05T19:34:55.693Z,10.10
2018-09-05T19:39:58.747Z,11.73
2018-09-05T19:45:01.811Z,15.00
2018-09-05T19:50:06.023Z,13.23
2018-09-05T19:55:09.235Z,11.60
2018-09-05T20:00:13.952Z,12.10
2018-09-05T20:05:16.987Z,14.67
2018-09-05T20:10:20.060Z,11.37
2018-09-05T20:15:24.143Z,14.10
2018-09-05T20:20:27.230Z,9.00
2018-09-05T20:25:30.343Z,12.10
2018-09-05T20:30:33.414Z,11.93
2018-09-05T20:35:36.455Z,15.10
2018-09-05T20:40:39.524Z,11.43
2018-09-05T20:45:42.590Z,16.60
2018-09-05T20:50:45.634Z,10.80
2018-09-05T20:55:48.739Z,11.17
2018-09-05T21:00:51.920Z,11.10
2018-09-05T21:05:54.950Z,14.50
2018-09-05T21:10:58.002Z,12.63
2018-09-05T21:16:01.031Z,11.70
2018-09-05T21:21:05.434Z,10.50
2018-09-05T21:26:08.454Z,12.17
2018-09-05T21:31:11.493Z,13.07
2018-09-05T21:36:14.582Z,10.70
2018-09-05T21:41:17.669Z,18.30
2018-09-05T21:46:20.754Z,14.07
2018-09-05T21:51:23.787Z,12.27
2018-09-05T21:56:26.886Z,13.73
2018-09-05T22:01:29.929Z,13.70
2018-09-05T22:06:33.037Z,14.60
2018-09-05T22:11:36.463Z,14.97
2018-09-05T22:16:39.549Z,15.23
2018-09-05T22:21:42.621Z,21.03
2018-09-05T22:26:45.643Z,15.63
2018-09-05T22:31:48.678Z,15.60
2018-09-05T22:36:51.739Z,12.93
2018-09-05T22:41:54.791Z,14.07
2018-09-05T22:47:09.303Z,16.00
2018-09-05T22:52:29.526Z,14.10
2018-09-05T22:57:55.210Z,13.53
2018-09-05T23:03:09.793Z,16.57
2018-09-05T23:08:44.898Z,18.43
2018-09-05T23:15:05.567Z,16.20
2018-09-05T23:20:23.118Z,14.63
2018-09-05T23:25:26.131Z,16.00
2018-09-05T23:30:29.191Z,32.47
2018-09-05T23:35:32.261Z,17.10
2018-09-05T23:40:35.300Z,14.27
2018-09-05T23:45:38.388Z,16.43
2018-09-05T23:50:41.468Z,15.73
2018-09-05T23:55:44.508Z,21.77
